Time;durP1;ratioP1;P1;durP2;ratioP2;P2;SDS_P1;SDS_P2;PMS_P1;PMS_P2;Temp;Humidity;BMP_temperature;BMP_pressure;BME280_temperature;BME280_humidity;BME280_pressure;Samples;Min_cycle;Max_cycle;Signal;HPM_P1;HPM_P2
2023/03/30 00:00:21;;;;;;;8.00;5.20;;;;;;;6.97;39.85;100141.84;5056344;28;20198;-69
2023/03/30 00:02:52;;;;;;;5.70;5.07;;;;;;;6.92;40.23;100154.69;5074392;28;20234;-71
2023/03/30 00:05:19;;;;;;;6.33;4.40;;;;;;;6.85;40.28;100148.38;5074662;28;20677;-70
2023/03/30 00:07:47;;;;;;;5.03;4.63;;;;;;;6.78;40.07;100150.81;5072299;28;20218;-69
2023/03/30 00:10:17;;;;;;;5.53;4.87;;;;;;;6.76;39.98;100147.53;5072589;28;20188;-70
2023/03/30 00:12:47;;;;;;;5.43;4.93;;;;;;;6.70;39.61;100139.41;5074338;28;20207;-71
2023/03/30 00:15:15;;;;;;;4.33;4.03;;;;;;;6.67;40.03;100139.69;5074385;28;20216;-69
2023/03/30 00:17:42;;;;;;;5.63;5.20;;;;;;;6.70;39.81;100147.31;5072418;28;20188;-69
2023/03/30 00:20:10;;;;;;;4.93;4.20;;;;;;;6.70;41.04;100139.41;5074399;28;20201;-69
2023/03/30 00:22:37;;;;;;;6.13;5.33;;;;;;;6.67;41.88;100139.69;5073740;28;20199;-70
2023/03/30 00:25:06;;;;;;;7.67;5.20;;;;;;;6.67;41.37;100142.34;5073911;28;20249;-69
2023/03/30 00:27:32;;;;;;;5.37;4.97;;;;;;;6.63;42.53;100138.34;5072717;28;20220;-70
2023/03/30 00:30:00;;;;;;;5.80;4.93;;;;;;;6.60;42.15;100143.94;5074161;28;20278;-70
2023/03/30 00:32:27;;;;;;;5.07;4.67;;;;;;;6.58;41.60;100140.63;5074165;28;20215;-70
2023/03/30 00:34:54;;;;;;;6.27;4.83;;;;;;;6.58;41.47;100148.56;5074059;28;20735;-70
2023/03/30 00:37:20;;;;;;;5.17;4.67;;;;;;;6.57;42.15;100144.28;5062442;28;20230;-69
2023/03/30 00:39:47;;;;;;;5.13;4.73;;;;;;;6.58;42.16;100148.56;5053887;28;20197;-70
2023/03/30 00:42:16;;;;;;;5.50;5.00;;;;;;;6.51;41.42;100142.22;5053837;28;20200;-71
2023/03/30 00:45:26;;;;;;;8.77;4.70;;;;;;;6.56;41.39;100148.72;5056696;28;20196;-70
2023/03/30 00:48:01;;;;;;;5.20;4.80;;;;;;;6.60;40.87;100136.03;5055128;28;20219;-71
2023/03/30 00:50:34;;;;;;;5.57;3.97;;;;;;;6.61;40.72;100135.06;5054118;28;20184;-71
2023/03/30 00:53:07;;;;;;;6.00;4.53;;;;;;;6.63;41.01;100141.84;5053974;28;20296;-69
2023/03/30 00:55:36;;;;;;;5.13;4.63;;;;;;;6.56;42.22;100132.03;5062908;28;20645;-70
2023/03/30 00:58:02;;;;;;;5.33;4.33;;;;;;;6.46;42.45;100141.88;5073720;28;20243;-70
2023/03/30 01:00:29;;;;;;;5.40;4.73;;;;;;;6.29;42.38;100148.00;5073628;28;20633;-70
2023/03/30 01:03:01;;;;;;;5.27;4.87;;;;;;;6.12;43.16;100143.59;5071454;28;20198;-69
2023/03/30 01:05:29;;;;;;;5.97;4.50;;;;;;;5.97;43.94;100135.38;5053776;28;20244;-69
2023/03/30 01:07:57;;;;;;;8.00;5.13;;;;;;;5.98;43.99;100136.19;5053736;28;20674;-69
2023/03/30 01:10:24;;;;;;;5.17;4.70;;;;;;;5.96;45.76;100133.69;5053458;28;20200;-71
2023/03/30 01:12:52;;;;;;;6.60;6.00;;;;;;;5.88;45.20;100144.16;5053993;28;20787;-69
2023/03/30 01:15:20;;;;;;;7.83;6.33;;;;;;;5.70;44.95;100136.25;5072476;28;20199;-68
2023/03/30 01:18:03;;;;;;;5.73;5.03;;;;;;;5.61;46.10;100144.22;5072890;28;20237;-69
2023/03/30 01:21:08;;;;;;;6.00;5.40;;;;;;;5.54;47.14;100137.88;5072984;28;20274;-69
2023/03/30 01:24:07;;;;;;;7.40;6.67;;;;;;;5.30;47.10;100138.44;5065763;28;20185;-68
2023/03/30 01:26:43;;;;;;;13.40;5.60;;;;;;;5.32;47.32;100138.28;5069521;28;20223;-68
2023/03/30 01:29:21;;;;;;;10.37;5.03;;;;;;;5.33;48.13;100132.88;5073207;28;20184;-68
2023/03/30 01:31:59;;;;;;;5.87;5.30;;;;;;;5.27;48.80;100130.81;5071945;28;20214;-70
2023/03/30 01:34:56;;;;;;;5.80;5.30;;;;;;;5.28;48.90;100132.47;5071182;28;20203;-68
2023/03/30 01:37:55;;;;;;;6.77;5.27;;;;;;;5.13;48.89;100131.31;5073137;28;20231;-68
2023/03/30 01:40:29;;;;;;;7.73;5.73;;;;;;;5.05;48.79;100141.75;5072756;28;20569;-69
2023/03/30 01:43:00;;;;;;;5.57;4.93;;;;;;;5.09;49.54;100143.13;5071987;28;20253;-68
2023/03/30 01:45:36;;;;;;;6.33;5.73;;;;;;;5.09;49.27;100143.13;5053004;28;20192;-70
2023/03/30 01:48:10;;;;;;;11.13;5.33;;;;;;;5.14;49.14;100143.50;5052860;28;20185;-69
2023/03/30 01:50:42;;;;;;;6.07;5.47;;;;;;;5.12;49.28;100142.84;5052471;28;20172;-70
2023/03/30 01:53:16;;;;;;;7.67;5.63;;;;;;;5.12;49.27;100148.09;5067591;28;20235;-69
2023/03/30 01:55:49;;;;;;;7.70;5.70;;;;;;;4.94;49.17;100144.56;5071764;28;20190;-69
2023/03/30 01:58:23;;;;;;;7.27;5.63;;;;;;;4.96;49.19;100141.78;5072312;28;20212;-69
2023/03/30 02:00:52;;;;;;;17.10;6.70;;;;;;;5.00;50.41;100138.72;5072363;28;20191;-70
2023/03/30 02:03:22;;;;;;;12.23;6.30;;;;;;;4.98;50.79;100142.44;5054903;28;20225;-70
2023/03/30 02:05:53;;;;;;;9.93;6.37;;;;;;;4.99;50.86;100147.56;5052194;28;20197;-70
2023/03/30 02:08:24;;;;;;;6.50;5.90;;;;;;;4.97;50.88;100144.28;5052215;28;20197;-69
2023/03/30 02:10:55;;;;;;;7.27;5.60;;;;;;;4.92;50.20;100141.25;5062106;28;20239;-69
2023/03/30 02:13:23;;;;;;;7.00;6.00;;;;;;;4.82;50.54;100156.22;5072177;28;20212;-68
2023/03/30 02:15:55;;;;;;;5.20;4.80;;;;;;;4.72;51.21;100155.44;5071743;28;20192;-69
2023/03/30 02:18:22;;;;;;;6.73;5.80;;;;;;;4.69;51.20;100152.25;5072204;28;20188;-68
2023/03/30 02:20:49;;;;;;;12.03;6.97;;;;;;;4.69;52.01;100145.19;5062179;28;20189;-68
2023/03/30 02:23:19;;;;;;;10.33;6.23;;;;;;;4.66;51.62;100144.66;5052015;28;20202;-67
2023/03/30 02:25:47;;;;;;;9.53;6.30;;;;;;;4.61;51.57;100145.06;5061645;28;20195;-68
2023/03/30 02:28:15;;;;;;;11.17;6.60;;;;;;;4.63;51.51;100153.66;5072013;28;20259;-68
2023/03/30 02:30:45;;;;;;;16.10;6.83;;;;;;;4.57;51.96;100146.31;5070277;28;20199;-69
2023/03/30 02:33:24;;;;;;;12.37;7.53;;;;;;;4.42;51.79;100137.22;5070982;28;20228;-69
2023/03/30 02:36:22;;;;;;;10.77;6.67;;;;;;;4.49;52.09;100167.25;5071860;28;20187;-69
2023/03/30 02:39:00;;;;;;;9.00;6.73;;;;;;;4.40;51.72;100152.31;5071989;28;20184;-70
2023/03/30 02:41:47;;;;;;;10.23;7.13;;;;;;;4.36;51.53;100164.09;5057093;28;20438;-69
2023/03/30 02:44:28;;;;;;;14.07;6.77;;;;;;;4.39;51.39;100166.44;5051722;28;20224;-69
2023/03/30 02:47:06;;;;;;;9.33;6.83;;;;;;;4.38;51.75;100167.38;5051024;28;20638;-68
2023/03/30 02:49:47;;;;;;;9.43;6.67;;;;;;;4.34;50.80;100173.09;5051236;28;20184;-69
2023/03/30 02:52:32;;;;;;;7.97;7.17;;;;;;;4.26;51.41;100179.06;5069821;28;20237;-69
2023/03/30 02:55:07;;;;;;;9.03;7.27;;;;;;;4.25;51.58;100176.56;5071015;28;20850;-70
2023/03/30 02:57:42;;;;;;;8.93;7.10;;;;;;;4.25;51.32;100169.50;5070952;28;20237;-68
2023/03/30 03:00:16;;;;;;;8.23;7.50;;;;;;;4.11;52.38;100164.66;5054683;28;20245;-69
2023/03/30 03:02:48;;;;;;;12.40;8.43;;;;;;;4.19;52.35;100172.69;5051070;28;20279;-67
2023/03/30 03:05:16;;;;;;;11.37;8.30;;;;;;;4.27;53.11;100175.44;5051119;28;20188;-69
2023/03/30 03:07:43;;;;;;;10.23;7.83;;;;;;;4.33;52.48;100174.06;5051067;28;20455;-70
2023/03/30 03:10:11;;;;;;;18.43;9.07;;;;;;;4.35;52.44;100170.31;5067329;28;20225;-70
2023/03/30 03:12:39;;;;;;;12.03;8.37;;;;;;;4.37;52.16;100172.81;5071194;28;20238;-69
2023/03/30 03:15:06;;;;;;;11.00;9.03;;;;;;;4.32;52.72;100178.47;5071613;28;20196;-70
2023/03/30 03:17:34;;;;;;;11.33;7.90;;;;;;;4.37;52.13;100168.38;5071390;28;20195;-70
2023/03/30 03:20:02;;;;;;;23.70;8.43;;;;;;;4.42;52.90;100179.28;5055871;28;20670;-71
2023/03/30 03:22:28;;;;;;;21.50;9.10;;;;;;;4.51;53.03;100178.47;5063765;28;20205;-70
2023/03/30 03:24:55;;;;;;;13.17;7.60;;;;;;;4.56;53.59;100176.25;5070675;28;20197;-69
2023/03/30 03:27:22;;;;;;;14.17;8.17;;;;;;;4.58;53.33;100171.66;5070994;28;20225;-69
2023/03/30 03:29:49;;;;;;;9.33;8.37;;;;;;;4.63;52.66;100174.72;5069966;28;20221;-70
2023/03/30 03:32:15;;;;;;;17.33;8.60;;;;;;;4.66;52.34;100173.59;5071332;28;20258;-71
2023/03/30 03:34:44;;;;;;;12.90;7.77;;;;;;;4.61;52.91;100179.28;5071336;28;20569;-71
2023/03/30 03:37:11;;;;;;;7.40;6.77;;;;;;;4.57;53.06;100175.25;5070907;28;20218;-72
2023/03/30 03:39:38;;;;;;;13.67;8.87;;;;;;;4.65;52.50;100180.66;5059287;28;20223;-70
2023/03/30 03:42:05;;;;;;;10.90;7.87;;;;;;;4.65;52.76;100191.19;5051502;28;20739;-71
2023/03/30 03:44:32;;;;;;;9.63;6.97;;;;;;;4.63;54.29;100194.91;5051163;28;20196;-73
2023/03/30 03:46:58;;;;;;;11.87;7.57;;;;;;;4.70;53.56;100199.47;5051055;28;20192;-70
2023/03/30 03:49:25;;;;;;;10.67;8.80;;;;;;;4.70;52.55;100204.72;5050652;28;20227;-73
2023/03/30 03:51:53;;;;;;;19.43;8.73;;;;;;;4.67;52.75;100202.41;5057279;28;20732;-73
2023/03/30 03:54:20;;;;;;;13.03;8.80;;;;;;;4.69;52.55;100210.97;5069051;28;20284;-68
2023/03/30 03:56:47;;;;;;;10.90;9.13;;;;;;;4.69;52.06;100218.03;5070378;28;20195;-69
2023/03/30 03:59:14;;;;;;;18.30;9.73;;;;;;;4.66;53.09;100208.63;5074179;28;20732;-70
2023/03/30 04:01:40;;;;;;;16.97;9.90;;;;;;;4.55;53.03;100218.47;5055038;28;20246;-71
2023/03/30 04:04:07;;;;;;;13.70;8.90;;;;;;;4.53;53.04;100223.88;5053757;28;20451;-72
2023/03/30 04:06:34;;;;;;;9.27;6.53;;;;;;;4.59;52.12;100212.81;5053219;28;20572;-71
2023/03/30 04:09:02;;;;;;;21.00;7.03;;;;;;;4.66;51.45;100213.88;5053745;28;20751;-71
2023/03/30 04:11:28;;;;;;;22.83;8.90;;;;;;;4.70;52.42;100210.00;5069502;28;20245;-72
2023/03/30 04:13:55;;;;;;;16.83;7.93;;;;;;;4.74;51.71;100219.25;5073265;28;20697;-71
2023/03/30 04:16:22;;;;;;;19.53;9.30;;;;;;;4.80;52.48;100218.72;5074081;28;20233;-72
2023/03/30 04:18:49;;;;;;;16.73;8.73;;;;;;;4.83;52.19;100221.03;5074467;28;20188;-71
2023/03/30 04:21:16;;;;;;;19.10;8.73;;;;;;;4.84;51.79;100222.72;5061203;28;20188;-75
2023/03/30 04:23:44;;;;;;;11.40;7.20;;;;;;;4.92;51.36;100220.22;5060144;28;20784;-72
2023/03/30 04:26:14;;;;;;;22.10;7.60;;;;;;;4.99;51.33;100221.28;5066713;28;20210;-72
2023/03/30 04:28:41;;;;;;;11.83;6.40;;;;;;;5.11;52.46;100225.41;5074842;28;20186;-75
2023/03/30 04:31:11;;;;;;;14.93;7.37;;;;;;;5.57;52.74;100227.97;5067287;28;20192;-77
2023/03/30 04:33:44;;;;;;;12.13;6.57;;;;;;;6.28;55.06;100222.88;5065748;28;20223;-73
2023/03/30 04:36:16;;;;;;;17.30;8.23;;;;;;;7.10;49.63;100232.09;5073838;28;20180;-76
2023/03/30 04:38:43;;;;;;;63.00;14.10;;;;;;;7.84;46.33;100239.19;5073869;28;20191;-78
2023/03/30 04:41:13;;;;;;;40.67;12.17;;;;;;;8.49;44.01;100250.78;5073079;28;20711;-75
2023/03/30 04:43:40;;;;;;;26.10;10.20;;;;;;;9.01;42.46;100250.28;5053495;28;20199;-76
2023/03/30 04:46:07;;;;;;;30.33;9.10;;;;;;;9.47;40.54;100248.66;5068062;28;20188;-77
2023/03/30 04:48:33;;;;;;;15.47;8.40;;;;;;;9.80;39.87;100259.00;5073190;28;20784;-77
2023/03/30 04:51:00;;;;;;;33.80;13.70;;;;;;;10.02;40.10;100265.38;5073187;28;20200;-76
2023/03/30 04:53:27;;;;;;;25.00;9.83;;;;;;;10.72;37.59;100265.13;5072462;28;20219;-74
2023/03/30 04:55:54;;;;;;;51.20;13.30;;;;;;;11.02;36.99;100265.22;5073634;28;20657;-74
2023/03/30 04:58:22;;;;;;;69.60;13.33;;;;;;;11.39;37.80;100273.97;5073417;28;20192;-75
2023/03/30 05:00:48;;;;;;;49.17;12.83;;;;;;;11.86;35.66;100277.13;5067195;28;20674;-77
2023/03/30 05:03:15;;;;;;;46.07;12.07;;;;;;;12.11;34.92;100275.81;5072992;28;20271;-70
2023/03/30 05:05:42;;;;;;;29.83;10.00;;;;;;;11.92;33.94;100276.38;5065542;28;20200;-77
2023/03/30 05:08:08;;;;;;;31.97;9.80;;;;;;;12.13;33.31;100281.75;5072160;28;20696;-79
2023/03/30 05:10:35;;;;;;;30.00;10.03;;;;;;;12.29;32.69;100286.88;5071113;28;20705;-79
2023/03/30 05:13:02;;;;;;;25.33;10.30;;;;;;;12.31;32.63;100290.19;5073458;28;20227;-79
2023/03/30 05:15:30;;;;;;;24.53;9.77;;;;;;;12.39;32.31;100283.91;5072652;28;20229;-75
2023/03/30 05:17:59;;;;;;;47.93;11.97;;;;;;;12.44;32.15;100276.16;5072985;28;20193;-76
2023/03/30 05:20:25;;;;;;;25.07;8.73;;;;;;;12.54;31.93;100284.69;5065027;28;20204;-74
2023/03/30 05:22:52;;;;;;;20.97;8.93;;;;;;;12.87;30.95;100294.66;5052770;28;20199;-77
2023/03/30 05:25:19;;;;;;;18.53;9.80;;;;;;;12.87;31.13;100289.31;5058722;28;20229;-78
2023/03/30 05:27:46;;;;;;;16.87;8.80;;;;;;;13.57;29.80;100287.47;5072815;28;20234;-72
2023/03/30 05:30:13;;;;;;;15.77;9.47;;;;;;;13.99;28.64;100295.28;5072023;28;20241;-75
2023/03/30 05:32:41;;;;;;;19.70;8.77;;;;;;;14.55;28.56;100294.06;5057613;28;20221;-70
2023/03/30 05:35:09;;;;;;;21.53;10.07;;;;;;;14.90;28.10;100287.56;5052358;28;20220;-72
2023/03/30 05:37:35;;;;;;;12.63;7.80;;;;;;;15.23;27.21;100299.09;5052781;28;20556;-74
2023/03/30 05:40:06;;;;;;;12.47;7.33;;;;;;;14.65;27.64;100291.03;5058206;28;20189;-74
2023/03/30 05:42:32;;;;;;;14.77;7.63;;;;;;;14.82;27.74;100297.63;5063810;28;20283;-72
2023/03/30 05:44:59;;;;;;;15.33;7.63;;;;;;;15.54;26.78;100302.00;5072248;28;20195;-72
2023/03/30 05:47:27;;;;;;;13.90;6.97;;;;;;;15.64;26.69;100302.41;5072447;28;20241;-74
2023/03/30 05:49:55;;;;;;;14.10;6.77;;;;;;;15.23;27.40;100292.91;5070900;28;20192;-73
2023/03/30 05:52:22;;;;;;;14.57;7.00;;;;;;;15.90;26.63;100293.47;5052324;28;20666;-71
2023/03/30 05:54:49;;;;;;;7.27;6.07;;;;;;;16.41;26.06;100293.53;5058792;28;20227;-73
2023/03/30 05:57:16;;;;;;;18.90;10.23;;;;;;;16.52;25.82;100287.47;5065832;28;20654;-71
2023/03/30 05:59:43;;;;;;;14.87;7.43;;;;;;;16.73;25.64;100289.81;5064480;28;20189;-72
2023/03/30 06:02:11;;;;;;;99.03;11.10;;;;;;;16.16;26.13;100273.81;5058452;28;20727;-76
2023/03/30 06:04:38;;;;;;;21.40;6.87;;;;;;;15.74;26.41;100292.09;5058017;28;20204;-68
2023/03/30 06:07:06;;;;;;;24.83;8.10;;;;;;;15.23;27.52;100287.56;5069900;28;20656;-70
2023/03/30 06:09:33;;;;;;;17.73;8.27;;;;;;;15.07;27.37;100279.97;5071635;28;20219;-69
2023/03/30 06:12:00;;;;;;;15.70;7.23;;;;;;;15.23;27.61;100288.41;5071520;28;20582;-74
2023/03/30 06:14:26;;;;;;;11.17;7.53;;;;;;;16.10;26.54;100286.22;5069999;28;20230;-72
2023/03/30 06:16:53;;;;;;;9.50;7.60;;;;;;;16.95;25.65;100296.50;5072028;28;20196;-70
2023/03/30 06:19:20;;;;;;;14.20;8.10;;;;;;;17.22;25.01;100303.28;5070739;28;20195;-69
2023/03/30 06:21:47;;;;;;;30.00;8.77;;;;;;;17.58;24.69;100309.63;5071549;28;20207;-82
2023/03/30 06:24:15;;;;;;;23.10;7.93;;;;;;;17.96;24.51;100310.25;5071888;28;20295;-77
2023/03/30 06:26:42;;;;;;;24.57;8.93;;;;;;;18.17;24.30;100300.94;5071317;28;20301;-84
2023/03/30 06:29:09;;;;;;;15.90;7.83;;;;;;;18.14;24.21;100309.44;5058457;28;20246;-82
2023/03/30 06:31:36;;;;;;;18.30;7.97;;;;;;;17.82;24.81;100305.25;5052142;28;20204;-77
2023/03/30 06:34:02;;;;;;;21.87;8.40;;;;;;;17.84;25.12;100295.91;5051495;28;20333;-77
2023/03/30 06:36:29;;;;;;;99.00;13.53;;;;;;;18.32;25.04;100306.72;5051647;28;20242;-81
2023/03/30 06:38:56;;;;;;;25.27;7.47;;;;;;;18.71;24.53;100317.81;5054403;28;20200;-79
2023/03/30 06:41:24;;;;;;;26.73;8.87;;;;;;;18.74;24.65;100306.59;5059579;28;20220;-81
2023/03/30 06:43:51;;;;;;;11.43;7.57;;;;;;;18.93;24.18;100310.88;5052109;28;20216;-77
2023/03/30 06:46:18;;;;;;;44.17;9.13;;;;;;;18.80;24.41;100277.94;5051629;28;20192;-79
2023/03/30 06:48:45;;;;;;;11.63;7.07;;;;;;;19.03;24.45;100299.56;5051498;28;20693;-81
2023/03/30 06:51:13;;;;;;;10.40;5.13;;;;;;;19.22;24.22;100299.22;5053624;28;20577;-83
2023/03/30 06:53:42;;;;;;;21.83;5.60;;;;;;;19.12;24.26;100319.69;5059546;28;20200;-83
2023/03/30 06:56:15;;;;;;;19.97;6.37;;;;;;;19.06;24.57;100304.44;5071623;28;20192;-81
2023/03/30 06:58:44;;;;;;;11.17;5.90;;;;;;;19.03;24.78;100307.63;5055371;28;20211;-83
2023/03/30 07:03:58;;;;;;;61.13;9.23;;;;;;;19.05;24.86;100243.56;5049688;28;20690;-80
2023/03/30 07:06:25;;;;;;;21.43;5.00;;;;;;;19.28;25.03;100257.09;5064663;28;20213;-84
2023/03/30 07:08:52;;;;;;;21.20;4.27;;;;;;;19.71;24.89;100271.03;5070005;28;20201;-85
2023/03/30 07:11:19;;;;;;;203.20;18.97;;;;;;;19.52;24.95;100261.44;5071622;28;20288;-86
2023/03/30 07:13:47;;;;;;;25.27;4.63;;;;;;;19.26;25.68;100300.44;5057739;28;20207;-79
2023/03/30 07:16:14;;;;;;;4.57;3.23;;;;;;;18.78;26.04;100285.44;5055915;28;20208;-79
2023/03/30 07:18:41;;;;;;;10.23;3.67;;;;;;;19.06;26.57;100293.69;5050258;28;20201;-78
2023/03/30 07:21:08;;;;;;;14.40;3.67;;;;;;;19.41;25.91;100286.50;5050980;28;20193;-77
2023/03/30 07:23:35;;;;;;;3.23;2.80;;;;;;;19.48;25.69;100292.63;5055239;28;20197;-78
2023/03/30 07:26:01;;;;;;;16.40;3.60;;;;;;;18.73;26.88;100282.59;5061764;28;20231;-78
2023/03/30 07:28:28;;;;;;;4.63;3.27;;;;;;;18.52;27.29;100285.78;5068333;28;20612;-82
2023/03/30 07:31:04;;;;;;;3.73;2.30;;;;;;;18.35;27.61;100284.78;5070632;28;20202;-80
2023/03/30 07:33:31;;;;;;;8.63;3.60;;;;;;;18.08;28.19;100268.13;5055137;28;20192;-75
2023/03/30 07:35:58;;;;;;;3.63;3.10;;;;;;;18.63;27.44;100279.66;5055962;28;20219;-77
2023/03/30 07:38:25;;;;;;;50.30;7.53;;;;;;;18.96;27.26;100282.66;5073139;28;20215;-75
2023/03/30 07:40:52;;;;;;;3.97;3.57;;;;;;;18.81;27.31;100290.34;5074595;28;20280;-77
2023/03/30 07:43:19;;;;;;;19.23;4.13;;;;;;;18.57;27.57;100289.44;5074647;28;20639;-78
2023/03/30 07:45:46;;;;;;;3.10;2.53;;;;;;;18.12;28.05;100295.38;5067475;28;20207;-79
2023/03/30 07:48:14;;;;;;;6.40;3.17;;;;;;;17.81;31.36;100279.41;5054916;28;20762;-73
2023/03/30 07:50:41;;;;;;;3.37;2.97;;;;;;;17.80;30.45;100288.53;5072071;28;20200;-73
2023/03/30 07:53:08;;;;;;;5.47;3.33;;;;;;;17.76;32.47;100290.03;5074726;28;20624;-73
2023/03/30 07:55:37;;;;;;;6.80;3.07;;;;;;;18.60;39.23;100272.03;5074536;28;20215;-75
2023/03/30 07:58:04;;;;;;;3.07;2.73;;;;;;;18.61;28.47;100296.00;5074386;28;20205;-78
2023/03/30 08:00:31;;;;;;;7.03;2.50;;;;;;;18.39;37.03;100277.91;5058805;28;20192;-77
2023/03/30 08:02:58;;;;;;;6.60;3.20;;;;;;;18.55;28.81;100283.50;5074580;28;20584;-76
2023/03/30 08:05:26;;;;;;;3.43;2.70;;;;;;;18.46;29.85;100286.72;5067402;28;20624;-73
2023/03/30 08:07:53;;;;;;;5.03;2.83;;;;;;;18.99;31.84;100274.13;5054694;28;20205;-76
2023/03/30 08:10:19;;;;;;;2.90;2.70;;;;;;;19.27;28.26;100290.47;5054625;28;20256;-78
2023/03/30 08:12:46;;;;;;;20.73;4.13;;;;;;;19.46;27.94;100290.16;5072271;28;20202;-76
2023/03/30 08:15:13;;;;;;;7.33;3.10;;;;;;;20.00;30.09;100286.22;5071312;28;20678;-76
2023/03/30 08:17:40;;;;;;;3.93;3.53;;;;;;;20.24;29.87;100279.75;5054128;28;20198;-74
2023/03/30 08:20:10;;;;;;;5.10;3.17;;;;;;;20.73;30.63;100276.38;5054268;28;20196;-73
2023/03/30 08:22:38;;;;;;;4.43;2.90;;;;;;;21.30;25.75;100288.72;5072970;28;20222;-73
2023/03/30 08:25:05;;;;;;;29.90;4.87;;;;;;;21.05;25.53;100274.81;5073159;28;20691;-75
2023/03/30 08:27:32;;;;;;;2.80;2.70;;;;;;;21.63;28.72;100279.75;5073015;28;20289;-75
2023/03/30 08:29:59;;;;;;;4.13;3.37;;;;;;;21.43;25.71;100277.59;5073912;28;20212;-73
2023/03/30 08:32:26;;;;;;;7.27;3.57;;;;;;;20.44;28.39;100272.03;5071148;28;20203;-73
2023/03/30 08:34:53;;;;;;;20.23;4.63;;;;;;;20.57;28.83;100269.03;5073800;28;20310;-75
2023/03/30 08:37:20;;;;;;;3.30;3.00;;;;;;;20.66;26.10;100221.69;5063491;28;20255;-72
2023/03/30 08:39:48;;;;;;;3.53;2.53;;;;;;;20.41;26.06;100261.72;5070755;28;20568;-81
2023/03/30 08:42:54;;;;;;;3.63;3.33;;;;;;;20.07;27.06;100243.75;5072568;28;20917;-75
2023/03/30 08:45:21;;;;;;;4.00;3.33;;;;;;;20.07;29.16;100241.06;5042867;28;20195;-71
2023/03/30 08:47:51;;;;;;;8.57;3.47;;;;;;;20.57;26.76;100235.84;5067953;28;20196;-71
2023/03/30 08:50:25;;;;;;;5.87;2.97;;;;;;;20.90;26.72;100234.00;5053886;28;20694;-72
2023/03/30 08:52:52;;;;;;;13.03;3.03;;;;;;;20.34;26.34;100234.06;5053297;28;20311;-72
2023/03/30 08:55:26;;;;;;;6.13;3.53;;;;;;;20.60;27.04;100238.88;5069095;28;20297;-75
2023/03/30 08:57:59;;;;;;;72.67;5.70;;;;;;;20.81;27.29;100235.47;5070406;28;20287;-74
2023/03/30 09:00:33;;;;;;;30.00;4.87;;;;;;;20.62;26.35;100236.75;5069377;28;20200;-73
2023/03/30 09:03:07;;;;;;;29.13;4.27;;;;;;;20.95;28.65;100231.41;5068282;28;20192;-73
2023/03/30 09:05:40;;;;;;;37.47;4.87;;;;;;;21.00;28.04;100228.81;5068457;28;20702;-72
2023/03/30 09:08:14;;;;;;;9.40;2.50;;;;;;;21.08;26.67;100220.28;5068726;28;20250;-73
2023/03/30 09:10:47;;;;;;;19.53;2.90;;;;;;;21.06;25.63;100221.59;5062351;28;20199;-73
2023/03/30 09:13:17;;;;;;;8.60;3.00;;;;;;;20.67;24.46;100228.75;5069467;28;20732;-75
2023/03/30 09:15:55;;;;;;;2.90;2.10;;;;;;;20.70;24.39;100217.44;5069460;28;20269;-72
2023/03/30 09:18:28;;;;;;;7.47;2.70;;;;;;;20.79;24.51;100216.00;5069129;28;20196;-73
2023/03/30 09:20:58;;;;;;;3.87;2.23;;;;;;;20.68;24.92;100203.38;5067844;28;20200;-74
2023/03/30 09:23:28;;;;;;;19.67;2.73;;;;;;;20.59;24.08;100199.44;5069290;28;20282;-74
2023/03/30 09:26:04;;;;;;;2.03;1.90;;;;;;;20.25;24.17;100203.13;5068953;28;20196;-73
2023/03/30 09:28:38;;;;;;;3.03;2.00;;;;;;;19.44;24.78;100194.44;5069387;28;20295;-71
2023/03/30 09:31:11;;;;;;;8.17;2.87;;;;;;;19.24;25.18;100183.19;5069063;28;20194;-75
2023/03/30 09:33:44;;;;;;;3.40;2.10;;;;;;;18.60;24.55;100191.28;5069267;28;20256;-74
2023/03/30 09:36:16;;;;;;;2.80;2.20;;;;;;;17.94;24.74;100185.19;5062267;28;20227;-74
2023/03/30 09:38:43;;;;;;;11.33;2.63;;;;;;;18.61;25.17;100198.31;5069317;28;20621;-73
2023/03/30 09:41:41;;;;;;;3.37;2.10;;;;;;;19.15;24.73;100189.97;5068498;28;20696;-74
2023/03/30 09:44:16;;;;;;;2.53;2.43;;;;;;;19.18;24.70;100181.38;5035071;28;20647;-74
2023/03/30 09:46:43;;;;;;;10.33;2.10;;;;;;;19.13;24.50;100178.59;5068644;28;20195;-75
2023/03/30 09:49:15;;;;;;;6.73;1.67;;;;;;;19.51;24.59;100171.66;5068508;28;20202;-74
2023/03/30 09:51:55;;;;;;;3.30;1.87;;;;;;;19.87;24.55;100173.22;5068005;28;20195;-73
2023/03/30 09:54:23;;;;;;;2.30;1.53;;;;;;;20.08;24.28;100162.59;5065425;28;20657;-73
2023/03/30 09:56:55;;;;;;;14.43;2.20;;;;;;;20.31;22.84;100172.50;5067311;28;20322;-72
2023/03/30 09:59:30;;;;;;;2.23;2.13;;;;;;;20.53;22.14;100174.25;5074544;28;20282;-73
2023/03/30 10:02:10;;;;;;;2.13;1.90;;;;;;;19.96;21.97;100160.97;5062943;28;20676;-73
2023/03/30 10:04:56;;;;;;;4.97;2.07;;;;;;;20.03;21.47;100140.09;5068502;28;20279;-75
2023/03/30 10:07:25;;;;;;;8.97;1.93;;;;;;;19.76;32.91;100133.63;5061534;28;20235;-73
2023/03/30 10:09:52;;;;;;;5.33;2.30;;;;;;;19.79;25.39;100149.31;5068449;28;20211;-73
2023/03/30 10:12:21;;;;;;;1.87;1.77;;;;;;;19.26;24.41;100137.97;5066560;28;20201;-72
2023/03/30 10:14:53;;;;;;;7.50;2.30;;;;;;;19.55;25.12;100137.81;5068682;28;20698;-81
2023/03/30 10:17:24;;;;;;;4.40;2.30;;;;;;;19.99;26.85;100128.97;5064477;28;20235;-72
2023/03/30 10:19:53;;;;;;;3.80;1.90;;;;;;;19.99;24.91;100111.97;5062082;28;20196;-81
2023/03/30 10:22:22;;;;;;;24.53;4.67;;;;;;;20.31;22.97;100137.41;5067072;28;20268;-80
2023/03/30 10:24:52;;;;;;;11.83;2.60;;;;;;;20.44;24.33;100127.13;5066191;28;20681;-77
2023/03/30 10:27:20;;;;;;;2.23;1.70;;;;;;;19.78;24.64;100056.03;5062492;28;20227;-70
2023/03/30 10:29:50;;;;;;;19.87;3.17;;;;;;;20.20;23.65;100082.44;5065169;28;20626;-73
2023/03/30 10:32:20;;;;;;;16.57;2.90;;;;;;;20.66;24.25;100121.78;5060891;28;20661;-71
2023/03/30 10:34:50;;;;;;;9.70;1.53;;;;;;;20.82;22.70;100115.56;5067811;28;20210;-73
2023/03/30 10:37:22;;;;;;;2.77;1.27;;;;;;;19.92;22.77;100116.69;5065405;28;20192;-75
2023/03/30 10:39:52;;;;;;;6.33;2.00;;;;;;;19.31;23.63;100116.50;5062601;28;20195;-74
2023/03/30 10:42:23;;;;;;;2.67;1.30;;;;;;;18.71;24.67;100099.78;5063729;28;20283;-76
2023/03/30 10:44:53;;;;;;;2.63;2.43;;;;;;;18.76;25.49;100104.47;5064317;28;20729;-74
2023/03/30 10:47:32;;;;;;;42.07;5.63;;;;;;;19.22;26.40;100093.66;5067242;28;20551;-76
2023/03/30 10:50:08;;;;;;;1.70;1.60;;;;;;;19.00;26.32;100089.97;5066652;28;20242;-74
2023/03/30 10:52:44;;;;;;;13.77;1.97;;;;;;;18.75;25.43;100092.09;5063150;28;20196;-75
2023/03/30 10:55:17;;;;;;;1.47;1.37;;;;;;;19.08;27.36;100084.22;5062043;28;20603;-75
2023/03/30 10:57:58;;;;;;;41.43;4.83;;;;;;;18.77;25.55;100074.66;5065834;28;20287;-76
2023/03/30 11:00:49;;;;;;;75.33;7.50;;;;;;;18.79;28.10;100050.19;5064102;28;20637;-76
2023/03/30 11:03:20;;;;;;;2.93;1.67;;;;;;;18.92;27.31;100066.09;5064794;28;20203;-75
2023/03/30 11:05:49;;;;;;;18.67;2.87;;;;;;;19.02;26.94;100063.59;5065789;28;20573;-75
2023/03/30 11:08:20;;;;;;;52.90;5.73;;;;;;;18.91;27.10;100054.50;5063618;28;20208;-77
2023/03/30 11:10:48;;;;;;;45.03;5.70;;;;;;;19.17;27.48;100051.31;5066667;28;20192;-75
2023/03/30 11:13:21;;;;;;;5.13;1.93;;;;;;;18.90;27.99;100031.31;5066060;28;20207;-75
2023/03/30 11:15:52;;;;;;;1.93;1.83;;;;;;;18.73;28.24;100018.81;5062031;28;20206;-77
2023/03/30 11:18:23;;;;;;;2.43;1.73;;;;;;;18.77;28.11;100020.81;5065217;28;20581;-77
2023/03/30 11:20:59;;;;;;;2.00;1.60;;;;;;;18.87;29.81;100021.00;5061168;28;20203;-79
2023/03/30 11:24:22;;;;;;;2.67;1.63;;;;;;;19.06;26.64;99983.97;5066404;28;20212;-78
2023/03/30 11:26:56;;;;;;;4.40;1.97;;;;;;;18.99;27.89;100018.31;5064175;28;20242;-79
2023/03/30 11:29:33;;;;;;;3.70;1.40;;;;;;;19.03;26.99;99997.94;5065017;28;20696;-77
2023/03/30 11:32:15;;;;;;;4.33;1.93;;;;;;;18.96;29.47;100013.41;5059926;28;20206;-79
2023/03/30 11:34:54;;;;;;;1.73;1.63;;;;;;;19.31;26.61;100003.38;5065335;28;20190;-79
2023/03/30 11:37:28;;;;;;;3.83;1.90;;;;;;;19.53;25.34;100009.75;5063388;28;20253;-78
2023/03/30 11:40:00;;;;;;;12.87;2.30;;;;;;;19.68;25.89;100001.91;5065886;28;20657;-81
2023/03/30 11:42:31;;;;;;;1.50;1.40;;;;;;;19.42;26.41;99997.13;5064018;28;20254;-82